sensor_id;sensor_type;location;lat;lon;timestamp;P1;durP1;ratioP1;P2;durP2;ratioP2
19776;SDS011;10047;42.490;26.012;2023-08-24T00:00:04;10.88;;;9.80;;
19776;SDS011;10047;42.490;26.012;2023-08-24T00:02:31;11.05;;;9.95;;
19776;SDS011;10047;42.490;26.012;2023-08-24T00:04:56;10.63;;;9.63;;
19776;SDS011;10047;42.490;26.012;2023-08-24T00:07:22;11.10;;;10.00;;
19776;SDS011;10047;42.490;26.012;2023-08-24T00:09:47;11.38;;;9.50;;
19776;SDS011;10047;42.490;26.012;2023-08-24T00:12:13;10.73;;;9.63;;
19776;SDS011;10047;42.490;26.012;2023-08-24T00:14:38;10.57;;;9.57;;
19776;SDS011;10047;42.490;26.012;2023-08-24T00:17:03;9.88;;;8.98;;
19776;SDS011;10047;42.490;26.012;2023-08-24T00:19:29;10.93;;;9.80;;
19776;SDS011;10047;42.490;26.012;2023-08-24T00:21:55;10.73;;;9.10;;
19776;SDS011;10047;42.490;26.012;2023-08-24T00:24:20;11.27;;;8.90;;
19776;SDS011;10047;42.490;26.012;2023-08-24T00:26:46;10.95;;;9.82;;
19776;SDS011;10047;42.490;26.012;2023-08-24T00:29:11;10.30;;;9.25;;
19776;SDS011;10047;42.490;26.012;2023-08-24T00:31:37;10.18;;;9.27;;
19776;SDS011;10047;42.490;26.012;2023-08-24T00:34:02;10.30;;;9.30;;
19776;SDS011;10047;42.490;26.012;2023-08-24T00:36:28;12.63;;;9.48;;
19776;SDS011;10047;42.490;26.012;2023-08-24T00:38:53;10.32;;;9.32;;
19776;SDS011;10047;42.490;26.012;2023-08-24T00:41:19;12.02;;;8.98;;
19776;SDS011;10047;42.490;26.012;2023-08-24T00:43:46;10.07;;;9.15;;
19776;SDS011;10047;42.490;26.012;2023-08-24T00:46:11;11.02;;;9.75;;
19776;SDS011;10047;42.490;26.012;2023-08-24T00:48:38;10.52;;;9.45;;
19776;SDS011;10047;42.490;26.012;2023-08-24T00:51:03;10.40;;;9.40;;
19776;SDS011;10047;42.490;26.012;2023-08-24T00:53:29;11.43;;;9.98;;
19776;SDS011;10047;42.490;26.012;2023-08-24T00:55:56;11.07;;;9.75;;
19776;SDS011;10047;42.490;26.012;2023-08-24T00:58:21;12.20;;;9.73;;
19776;SDS011;10047;42.490;26.012;2023-08-24T01:00:57;11.18;;;10.07;;
19776;SDS011;10047;42.490;26.012;2023-08-24T01:03:23;10.82;;;9.80;;
19776;SDS011;10047;42.490;26.012;2023-08-24T01:05:49;10.82;;;9.82;;
19776;SDS011;10047;42.490;26.012;2023-08-24T01:08:15;10.88;;;9.77;;
19776;SDS011;10047;42.490;26.012;2023-08-24T01:11:02;13.95;;;10.80;;
19776;SDS011;10047;42.490;26.012;2023-08-24T01:13:34;11.87;;;10.27;;
19776;SDS011;10047;42.490;26.012;2023-08-24T01:16:16;12.88;;;10.27;;
19776;SDS011;10047;42.490;26.012;2023-08-24T01:18:46;14.25;;;10.45;;
19776;SDS011;10047;42.490;26.012;2023-08-24T01:21:13;11.57;;;10.32;;
19776;SDS011;10047;42.490;26.012;2023-08-24T01:26:14;12.38;;;10.40;;
19776;SDS011;10047;42.490;26.012;2023-08-24T01:28:43;11.35;;;10.23;;
19776;SDS011;10047;42.490;26.012;2023-08-24T01:31:10;11.60;;;9.73;;
19776;SDS011;10047;42.490;26.012;2023-08-24T01:33:35;11.55;;;10.10;;
19776;SDS011;10047;42.490;26.012;2023-08-24T01:36:01;12.40;;;10.38;;
19776;SDS011;10047;42.490;26.012;2023-08-24T01:38:27;11.80;;;10.60;;
19776;SDS011;10047;42.490;26.012;2023-08-24T01:40:55;11.63;;;10.52;;
19776;SDS011;10047;42.490;26.012;2023-08-24T01:43:46;11.70;;;9.68;;
19776;SDS011;10047;42.490;26.012;2023-08-24T01:46:16;10.63;;;9.57;;
19776;SDS011;10047;42.490;26.012;2023-08-24T01:48:43;11.70;;;10.50;;
19776;SDS011;10047;42.490;26.012;2023-08-24T01:51:10;10.77;;;9.68;;
19776;SDS011;10047;42.490;26.012;2023-08-24T01:53:36;11.48;;;10.02;;
19776;SDS011;10047;42.490;26.012;2023-08-24T01:56:13;12.88;;;9.70;;
19776;SDS011;10047;42.490;26.012;2023-08-24T01:58:40;11.18;;;9.98;;
19776;SDS011;10047;42.490;26.012;2023-08-24T02:01:06;11.73;;;9.60;;
19776;SDS011;10047;42.490;26.012;2023-08-24T02:03:33;11.80;;;10.10;;
19776;SDS011;10047;42.490;26.012;2023-08-24T02:05:58;11.52;;;10.32;;
19776;SDS011;10047;42.490;26.012;2023-08-24T02:08:24;11.07;;;10.00;;
19776;SDS011;10047;42.490;26.012;2023-08-24T02:10:49;12.13;;;9.68;;
19776;SDS011;10047;42.490;26.012;2023-08-24T02:13:14;10.85;;;9.85;;
19776;SDS011;10047;42.490;26.012;2023-08-24T02:15:40;10.68;;;9.57;;
19776;SDS011;10047;42.490;26.012;2023-08-24T02:18:06;12.45;;;10.18;;
19776;SDS011;10047;42.490;26.012;2023-08-24T02:20:35;15.25;;;10.50;;
19776;SDS011;10047;42.490;26.012;2023-08-24T02:23:02;11.45;;;10.27;;
19776;SDS011;10047;42.490;26.012;2023-08-24T02:25:28;16.05;;;11.35;;
19776;SDS011;10047;42.490;26.012;2023-08-24T02:27:53;16.23;;;11.55;;
19776;SDS011;10047;42.490;26.012;2023-08-24T02:30:19;12.68;;;11.32;;
19776;SDS011;10047;42.490;26.012;2023-08-24T02:32:44;17.83;;;11.20;;
19776;SDS011;10047;42.490;26.012;2023-08-24T02:35:09;15.02;;;11.35;;
19776;SDS011;10047;42.490;26.012;2023-08-24T02:37:35;16.20;;;10.95;;
19776;SDS011;10047;42.490;26.012;2023-08-24T02:40:00;15.88;;;11.60;;
19776;SDS011;10047;42.490;26.012;2023-08-24T02:42:26;13.55;;;12.20;;
19776;SDS011;10047;42.490;26.012;2023-08-24T02:44:52;17.08;;;12.43;;
19776;SDS011;10047;42.490;26.012;2023-08-24T02:47:17;13.15;;;11.85;;
19776;SDS011;10047;42.490;26.012;2023-08-24T02:49:42;14.35;;;12.35;;
19776;SDS011;10047;42.490;26.012;2023-08-24T02:52:08;16.25;;;12.45;;
19776;SDS011;10047;42.490;26.012;2023-08-24T02:54:33;13.48;;;12.18;;
19776;SDS011;10047;42.490;26.012;2023-08-24T02:56:59;14.43;;;11.00;;
19776;SDS011;10047;42.490;26.012;2023-08-24T02:59:24;12.75;;;10.98;;
19776;SDS011;10047;42.490;26.012;2023-08-24T03:01:51;14.65;;;11.98;;
19776;SDS011;10047;42.490;26.012;2023-08-24T03:04:17;13.13;;;11.77;;
19776;SDS011;10047;42.490;26.012;2023-08-24T03:06:43;16.65;;;11.38;;
19776;SDS011;10047;42.490;26.012;2023-08-24T03:09:09;14.80;;;12.40;;
19776;SDS011;10047;42.490;26.012;2023-08-24T03:11:35;14.75;;;12.40;;
19776;SDS011;10047;42.490;26.012;2023-08-24T03:14:00;14.18;;;12.02;;
19776;SDS011;10047;42.490;26.012;2023-08-24T03:16:26;14.07;;;12.27;;
19776;SDS011;10047;42.490;26.012;2023-08-24T03:18:51;13.40;;;11.93;;
19776;SDS011;10047;42.490;26.012;2023-08-24T03:21:17;13.25;;;11.85;;
19776;SDS011;10047;42.490;26.012;2023-08-24T03:23:42;14.25;;;12.18;;
19776;SDS011;10047;42.490;26.012;2023-08-24T03:26:08;16.92;;;12.00;;
19776;SDS011;10047;42.490;26.012;2023-08-24T03:28:33;12.65;;;11.25;;
19776;SDS011;10047;42.490;26.012;2023-08-24T03:30:58;15.13;;;12.25;;
19776;SDS011;10047;42.490;26.012;2023-08-24T03:33:25;15.43;;;12.10;;
19776;SDS011;10047;42.490;26.012;2023-08-24T03:35:51;16.88;;;12.73;;
19776;SDS011;10047;42.490;26.012;2023-08-24T03:38:17;17.92;;;12.57;;
19776;SDS011;10047;42.490;26.012;2023-08-24T03:40:42;15.20;;;12.18;;
19776;SDS011;10047;42.490;26.012;2023-08-24T03:43:07;17.38;;;12.38;;
19776;SDS011;10047;42.490;26.012;2023-08-24T03:45:33;16.92;;;12.65;;
19776;SDS011;10047;42.490;26.012;2023-08-24T03:47:58;16.50;;;11.38;;
19776;SDS011;10047;42.490;26.012;2023-08-24T03:50:24;15.10;;;11.75;;
19776;SDS011;10047;42.490;26.012;2023-08-24T03:52:49;18.65;;;12.13;;
19776;SDS011;10047;42.490;26.012;2023-08-24T03:55:15;17.08;;;12.98;;
19776;SDS011;10047;42.490;26.012;2023-08-24T03:57:41;17.10;;;12.85;;
19776;SDS011;10047;42.490;26.012;2023-08-24T04:00:07;21.10;;;12.90;;
19776;SDS011;10047;42.490;26.012;2023-08-24T04:02:36;19.77;;;12.73;;
19776;SDS011;10047;42.490;26.012;2023-08-24T04:05:05;18.15;;;13.48;;
19776;SDS011;10047;42.490;26.012;2023-08-24T04:07:30;17.85;;;13.52;;
19776;SDS011;10047;42.490;26.012;2023-08-24T04:09:56;18.08;;;13.57;;
19776;SDS011;10047;42.490;26.012;2023-08-24T04:12:22;17.38;;;13.70;;
19776;SDS011;10047;42.490;26.012;2023-08-24T04:14:47;21.27;;;15.35;;
19776;SDS011;10047;42.490;26.012;2023-08-24T04:17:12;21.70;;;16.15;;
19776;SDS011;10047;42.490;26.012;2023-08-24T04:19:38;18.20;;;14.75;;
19776;SDS011;10047;42.490;26.012;2023-08-24T04:22:04;19.17;;;16.17;;
19776;SDS011;10047;42.490;26.012;2023-08-24T04:24:29;26.88;;;17.25;;
19776;SDS011;10047;42.490;26.012;2023-08-24T04:26:55;25.20;;;16.52;;
19776;SDS011;10047;42.490;26.012;2023-08-24T04:29:20;22.30;;;14.10;;
19776;SDS011;10047;42.490;26.012;2023-08-24T04:31:45;21.02;;;14.93;;
19776;SDS011;10047;42.490;26.012;2023-08-24T04:34:11;24.25;;;13.68;;
19776;SDS011;10047;42.490;26.012;2023-08-24T04:36:36;19.75;;;14.00;;
19776;SDS011;10047;42.490;26.012;2023-08-24T04:39:02;22.38;;;14.55;;
19776;SDS011;10047;42.490;26.012;2023-08-24T04:41:27;19.42;;;14.80;;
19776;SDS011;10047;42.490;26.012;2023-08-24T04:43:53;25.17;;;14.98;;
19776;SDS011;10047;42.490;26.012;2023-08-24T04:46:19;24.15;;;14.45;;
19776;SDS011;10047;42.490;26.012;2023-08-24T04:48:45;21.67;;;16.40;;
19776;SDS011;10047;42.490;26.012;2023-08-24T04:51:10;26.35;;;19.02;;
19776;SDS011;10047;42.490;26.012;2023-08-24T04:53:36;20.30;;;16.95;;
19776;SDS011;10047;42.490;26.012;2023-08-24T04:56:01;26.00;;;15.48;;
19776;SDS011;10047;42.490;26.012;2023-08-24T04:58:27;27.38;;;14.63;;
19776;SDS011;10047;42.490;26.012;2023-08-24T05:00:52;19.88;;;13.60;;
19776;SDS011;10047;42.490;26.012;2023-08-24T05:03:17;17.92;;;13.23;;
19776;SDS011;10047;42.490;26.012;2023-08-24T05:05:44;18.42;;;13.70;;
19776;SDS011;10047;42.490;26.012;2023-08-24T05:08:10;21.98;;;14.20;;
19776;SDS011;10047;42.490;26.012;2023-08-24T05:10:35;18.75;;;14.25;;
19776;SDS011;10047;42.490;26.012;2023-08-24T05:13:01;18.80;;;13.77;;
19776;SDS011;10047;42.490;26.012;2023-08-24T05:15:27;18.63;;;13.70;;
19776;SDS011;10047;42.490;26.012;2023-08-24T05:17:52;20.05;;;13.82;;
19776;SDS011;10047;42.490;26.012;2023-08-24T05:20:20;19.90;;;13.38;;
19776;SDS011;10047;42.490;26.012;2023-08-24T05:22:46;19.33;;;13.07;;
19776;SDS011;10047;42.490;26.012;2023-08-24T05:25:12;14.77;;;12.57;;
19776;SDS011;10047;42.490;26.012;2023-08-24T05:27:37;14.27;;;12.50;;
19776;SDS011;10047;42.490;26.012;2023-08-24T05:30:03;15.88;;;12.27;;
19776;SDS011;10047;42.490;26.012;2023-08-24T05:32:30;13.48;;;12.02;;
19776;SDS011;10047;42.490;26.012;2023-08-24T05:34:56;17.23;;;11.73;;
19776;SDS011;10047;42.490;26.012;2023-08-24T05:37:21;17.88;;;12.35;;
19776;SDS011;10047;42.490;26.012;2023-08-24T05:39:46;14.98;;;11.63;;
19776;SDS011;10047;42.490;26.012;2023-08-24T05:42:12;14.35;;;11.07;;
19776;SDS011;10047;42.490;26.012;2023-08-24T05:44:37;14.98;;;12.00;;
19776;SDS011;10047;42.490;26.012;2023-08-24T05:47:03;14.65;;;12.90;;
19776;SDS011;10047;42.490;26.012;2023-08-24T05:49:28;18.45;;;16.00;;
19776;SDS011;10047;42.490;26.012;2023-08-24T05:51:54;21.08;;;16.73;;
19776;SDS011;10047;42.490;26.012;2023-08-24T05:54:19;19.17;;;12.85;;
19776;SDS011;10047;42.490;26.012;2023-08-24T05:56:45;15.32;;;12.98;;
19776;SDS011;10047;42.490;26.012;2023-08-24T05:59:11;16.75;;;12.25;;
19776;SDS011;10047;42.490;26.012;2023-08-24T06:01:37;12.98;;;11.43;;
19776;SDS011;10047;42.490;26.012;2023-08-24T06:04:06;17.08;;;12.70;;
19776;SDS011;10047;42.490;26.012;2023-08-24T06:06:35;13.52;;;12.25;;
19776;SDS011;10047;42.490;26.012;2023-08-24T06:09:00;18.52;;;11.63;;
19776;SDS011;10047;42.490;26.012;2023-08-24T06:11:26;12.80;;;11.38;;
19776;SDS011;10047;42.490;26.012;2023-08-24T06:13:51;12.48;;;11.07;;
19776;SDS011;10047;42.490;26.012;2023-08-24T06:16:20;13.30;;;11.30;;
19776;SDS011;10047;42.490;26.012;2023-08-24T06:18:45;12.80;;;11.02;;
19776;SDS011;10047;42.490;26.012;2023-08-24T06:21:11;15.50;;;11.60;;
19776;SDS011;10047;42.490;26.012;2023-08-24T06:23:36;15.00;;;12.35;;
19776;SDS011;10047;42.490;26.012;2023-08-24T06:26:03;16.52;;;12.07;;
19776;SDS011;10047;42.490;26.012;2023-08-24T06:28:29;16.70;;;12.07;;
19776;SDS011;10047;42.490;26.012;2023-08-24T06:30:55;19.65;;;16.45;;
19776;SDS011;10047;42.490;26.012;2023-08-24T06:33:20;25.20;;;15.23;;
19776;SDS011;10047;42.490;26.012;2023-08-24T06:35:46;21.45;;;15.57;;
19776;SDS011;10047;42.490;26.012;2023-08-24T06:38:12;18.58;;;16.42;;
19776;SDS011;10047;42.490;26.012;2023-08-24T06:40:38;23.95;;;20.80;;
19776;SDS011;10047;42.490;26.012;2023-08-24T06:43:04;31.55;;;24.80;;
19776;SDS011;10047;42.490;26.012;2023-08-24T06:45:30;27.58;;;19.85;;
19776;SDS011;10047;42.490;26.012;2023-08-24T06:47:56;19.08;;;13.73;;
19776;SDS011;10047;42.490;26.012;2023-08-24T06:50:21;20.10;;;14.50;;
19776;SDS011;10047;42.490;26.012;2023-08-24T06:52:47;17.67;;;13.50;;
19776;SDS011;10047;42.490;26.012;2023-08-24T06:55:12;22.17;;;15.98;;
19776;SDS011;10047;42.490;26.012;2023-08-24T06:57:38;18.23;;;14.90;;
19776;SDS011;10047;42.490;26.012;2023-08-24T07:00:03;15.02;;;13.52;;
19776;SDS011;10047;42.490;26.012;2023-08-24T07:02:38;16.85;;;12.52;;
19776;SDS011;10047;42.490;26.012;2023-08-24T07:05:03;15.93;;;12.95;;
19776;SDS011;10047;42.490;26.012;2023-08-24T07:07:33;15.70;;;13.37;;
19776;SDS011;10047;42.490;26.012;2023-08-24T07:09:59;14.90;;;13.27;;
19776;SDS011;10047;42.490;26.012;2023-08-24T07:12:25;17.88;;;13.52;;
19776;SDS011;10047;42.490;26.012;2023-08-24T07:14:50;16.58;;;14.32;;
19776;SDS011;10047;42.490;26.012;2023-08-24T07:17:16;19.50;;;13.82;;
19776;SDS011;10047;42.490;26.012;2023-08-24T07:19:41;17.60;;;14.32;;
19776;SDS011;10047;42.490;26.012;2023-08-24T07:22:07;15.75;;;13.77;;
19776;SDS011;10047;42.490;26.012;2023-08-24T07:24:33;19.05;;;13.98;;
19776;SDS011;10047;42.490;26.012;2023-08-24T07:26:58;15.48;;;13.75;;
19776;SDS011;10047;42.490;26.012;2023-08-24T07:29:24;19.13;;;13.68;;
19776;SDS011;10047;42.490;26.012;2023-08-24T07:31:49;15.25;;;13.50;;
19776;SDS011;10047;42.490;26.012;2023-08-24T07:34:14;16.15;;;12.95;;
19776;SDS011;10047;42.490;26.012;2023-08-24T07:36:40;14.30;;;12.82;;
19776;SDS011;10047;42.490;26.012;2023-08-24T07:39:07;17.38;;;13.48;;
19776;SDS011;10047;42.490;26.012;2023-08-24T07:41:33;17.38;;;13.60;;
19776;SDS011;10047;42.490;26.012;2023-08-24T07:43:58;16.48;;;13.35;;
19776;SDS011;10047;42.490;26.012;2023-08-24T07:46:24;19.80;;;13.38;;
19776;SDS011;10047;42.490;26.012;2023-08-24T07:48:49;14.98;;;13.13;;
19776;SDS011;10047;42.490;26.012;2023-08-24T07:51:15;14.85;;;13.40;;
19776;SDS011;10047;42.490;26.012;2023-08-24T07:53:40;19.45;;;13.55;;
19776;SDS011;10047;42.490;26.012;2023-08-24T07:56:06;16.45;;;13.85;;
19776;SDS011;10047;42.490;26.012;2023-08-24T07:58:31;21.08;;;14.40;;
19776;SDS011;10047;42.490;26.012;2023-08-24T08:00:57;16.40;;;13.48;;
19776;SDS011;10047;42.490;26.012;2023-08-24T08:03:24;19.63;;;13.90;;
19776;SDS011;10047;42.490;26.012;2023-08-24T08:05:49;15.45;;;13.70;;
19776;SDS011;10047;42.490;26.012;2023-08-24T08:08:15;18.45;;;13.18;;
19776;SDS011;10047;42.490;26.012;2023-08-24T08:10:41;18.08;;;12.80;;
19776;SDS011;10047;42.490;26.012;2023-08-24T08:13:07;14.48;;;12.38;;
19776;SDS011;10047;42.490;26.012;2023-08-24T08:15:33;16.70;;;13.23;;
19776;SDS011;10047;42.490;26.012;2023-08-24T08:17:59;13.80;;;12.40;;
19776;SDS011;10047;42.490;26.012;2023-08-24T08:20:24;14.88;;;12.68;;
19776;SDS011;10047;42.490;26.012;2023-08-24T08:22:50;14.85;;;13.00;;
19776;SDS011;10047;42.490;26.012;2023-08-24T08:25:15;16.70;;;13.40;;
19776;SDS011;10047;42.490;26.012;2023-08-24T08:27:43;13.80;;;12.45;;
19776;SDS011;10047;42.490;26.012;2023-08-24T08:30:09;17.23;;;12.77;;
19776;SDS011;10047;42.490;26.012;2023-08-24T08:32:35;17.77;;;12.68;;
19776;SDS011;10047;42.490;26.012;2023-08-24T08:35:00;16.23;;;12.07;;
19776;SDS011;10047;42.490;26.012;2023-08-24T08:37:26;19.27;;;12.48;;
19776;SDS011;10047;42.490;26.012;2023-08-24T08:39:52;14.65;;;11.80;;
19776;SDS011;10047;42.490;26.012;2023-08-24T08:42:17;14.68;;;12.25;;
19776;SDS011;10047;42.490;26.012;2023-08-24T08:44:44;13.73;;;12.05;;
19776;SDS011;10047;42.490;26.012;2023-08-24T08:47:11;15.77;;;11.82;;
19776;SDS011;10047;42.490;26.012;2023-08-24T08:49:39;13.70;;;12.35;;
19776;SDS011;10047;42.490;26.012;2023-08-24T08:52:05;13.77;;;11.77;;
19776;SDS011;10047;42.490;26.012;2023-08-24T08:54:31;12.82;;;11.30;;
19776;SDS011;10047;42.490;26.012;2023-08-24T08:56:58;16.20;;;10.70;;
19776;SDS011;10047;42.490;26.012;2023-08-24T08:59:24;14.57;;;11.93;;
19776;SDS011;10047;42.490;26.012;2023-08-24T09:01:54;13.27;;;10.68;;
19776;SDS011;10047;42.490;26.012;2023-08-24T09:04:21;12.10;;;10.38;;
19776;SDS011;10047;42.490;26.012;2023-08-24T09:06:47;14.15;;;10.82;;
19776;SDS011;10047;42.490;26.012;2023-08-24T09:09:13;11.70;;;10.50;;
19776;SDS011;10047;42.490;26.012;2023-08-24T09:11:40;11.68;;;10.48;;
19776;SDS011;10047;42.490;26.012;2023-08-24T09:14:07;16.13;;;10.48;;
19776;SDS011;10047;42.490;26.012;2023-08-24T09:16:33;10.48;;;9.57;;
19776;SDS011;10047;42.490;26.012;2023-08-24T09:18:58;10.88;;;9.35;;
19776;SDS011;10047;42.490;26.012;2023-08-24T09:21:24;11.00;;;9.90;;
19776;SDS011;10047;42.490;26.012;2023-08-24T09:23:53;10.80;;;9.57;;
19776;SDS011;10047;42.490;26.012;2023-08-24T09:26:29;11.23;;;10.07;;
19776;SDS011;10047;42.490;26.012;2023-08-24T09:28:55;10.68;;;9.68;;
19776;SDS011;10047;42.490;26.012;2023-08-24T09:31:21;12.77;;;9.82;;
19776;SDS011;10047;42.490;26.012;2023-08-24T09:33:47;10.32;;;9.32;;
19776;SDS011;10047;42.490;26.012;2023-08-24T09:36:16;10.13;;;9.07;;
19776;SDS011;10047;42.490;26.012;2023-08-24T09:38:47;10.30;;;9.32;;
19776;SDS011;10047;42.490;26.012;2023-08-24T09:41:17;13.38;;;9.30;;
19776;SDS011;10047;42.490;26.012;2023-08-24T09:43:42;11.93;;;9.60;;
19776;SDS011;10047;42.490;26.012;2023-08-24T09:46:07;10.98;;;10.07;;
19776;SDS011;10047;42.490;26.012;2023-08-24T09:48:33;13.68;;;9.82;;
19776;SDS011;10047;42.490;26.012;2023-08-24T09:50:59;13.05;;;9.40;;
19776;SDS011;10047;42.490;26.012;2023-08-24T09:53:28;12.75;;;10.00;;
19776;SDS011;10047;42.490;26.012;2023-08-24T09:56:01;10.88;;;9.35;;
19776;SDS011;10047;42.490;26.012;2023-08-24T09:58:28;11.37;;;9.53;;
19776;SDS011;10047;42.490;26.012;2023-08-24T10:00:54;10.57;;;9.45;;
19776;SDS011;10047;42.490;26.012;2023-08-24T10:03:21;10.75;;;9.75;;
19776;SDS011;10047;42.490;26.012;2023-08-24T10:05:52;12.82;;;9.32;;
19776;SDS011;10047;42.490;26.012;2023-08-24T10:08:20;10.70;;;9.02;;
19776;SDS011;10047;42.490;26.012;2023-08-24T10:10:51;10.57;;;9.57;;
19776;SDS011;10047;42.490;26.012;2023-08-24T10:13:20;11.18;;;9.27;;
19776;SDS011;10047;42.490;26.012;2023-08-24T10:15:56;12.50;;;9.77;;
19776;SDS011;10047;42.490;26.012;2023-08-24T10:18:22;11.10;;;9.70;;
19776;SDS011;10047;42.490;26.012;2023-08-24T10:20:49;9.70;;;8.63;;
19776;SDS011;10047;42.490;26.012;2023-08-24T10:23:16;10.82;;;9.23;;
19776;SDS011;10047;42.490;26.012;2023-08-24T10:25:45;9.73;;;8.82;;
19776;SDS011;10047;42.490;26.012;2023-08-24T10:28:11;11.48;;;9.43;;
19776;SDS011;10047;42.490;26.012;2023-08-24T10:30:38;10.32;;;9.32;;
19776;SDS011;10047;42.490;26.012;2023-08-24T10:33:05;13.63;;;9.82;;
19776;SDS011;10047;42.490;26.012;2023-08-24T10:35:31;10.07;;;9.07;;
19776;SDS011;10047;42.490;26.012;2023-08-24T10:37:58;11.10;;;9.13;;
19776;SDS011;10047;42.490;26.012;2023-08-24T10:40:34;9.85;;;8.95;;
19776;SDS011;10047;42.490;26.012;2023-08-24T10:43:04;10.82;;;9.10;;
19776;SDS011;10047;42.490;26.012;2023-08-24T10:48:29;10.02;;;9.10;;
19776;SDS011;10047;42.490;26.012;2023-08-24T10:53:38;9.70;;;8.75;;
19776;SDS011;10047;42.490;26.012;2023-08-24T10:56:11;10.27;;;9.32;;
19776;SDS011;10047;42.490;26.012;2023-08-24T10:58:41;9.90;;;8.88;;
19776;SDS011;10047;42.490;26.012;2023-08-24T11:01:07;10.00;;;9.02;;
19776;SDS011;10047;42.490;26.012;2023-08-24T11:03:40;11.23;;;8.90;;
19776;SDS011;10047;42.490;26.012;2023-08-24T11:06:17;9.93;;;8.98;;
19776;SDS011;10047;42.490;26.012;2023-08-24T11:08:43;15.48;;;9.02;;
19776;SDS011;10047;42.490;26.012;2023-08-24T11:11:22;11.32;;;9.88;;
19776;SDS011;10047;42.490;26.012;2023-08-24T11:16:47;10.20;;;9.20;;
19776;SDS011;10047;42.490;26.012;2023-08-24T11:19:13;10.15;;;9.15;;
19776;SDS011;10047;42.490;26.012;2023-08-24T11:21:40;9.57;;;8.63;;
19776;SDS011;10047;42.490;26.012;2023-08-24T11:24:08;10.38;;;8.90;;
19776;SDS011;10047;42.490;26.012;2023-08-24T11:26:38;10.27;;;9.45;;
19776;SDS011;10047;42.490;26.012;2023-08-24T11:29:05;10.70;;;8.98;;
19776;SDS011;10047;42.490;26.012;2023-08-24T11:31:32;12.00;;;8.93;;
19776;SDS011;10047;42.490;26.012;2023-08-24T11:33:59;10.20;;;9.10;;
19776;SDS011;10047;42.490;26.012;2023-08-24T11:36:24;10.13;;;8.85;;
19776;SDS011;10047;42.490;26.012;2023-08-24T11:38:53;9.93;;;9.02;;
19776;SDS011;10047;42.490;26.012;2023-08-24T11:41:21;9.95;;;8.88;;
19776;SDS011;10047;42.490;26.012;2023-08-24T11:43:48;9.82;;;8.63;;
19776;SDS011;10047;42.490;26.012;2023-08-24T11:46:16;9.45;;;8.65;;
19776;SDS011;10047;42.490;26.012;2023-08-24T11:48:43;9.88;;;8.43;;
19776;SDS011;10047;42.490;26.012;2023-08-24T11:51:09;10.25;;;9.20;;
19776;SDS011;10047;42.490;26.012;2023-08-24T11:53:37;9.93;;;9.05;;
19776;SDS011;10047;42.490;26.012;2023-08-24T11:56:04;10.27;;;9.23;;
19776;SDS011;10047;42.490;26.012;2023-08-24T11:58:31;11.15;;;9.48;;
19776;SDS011;10047;42.490;26.012;2023-08-24T12:00:57;11.20;;;9.50;;
19776;SDS011;10047;42.490;26.012;2023-08-24T12:03:23;13.75;;;9.75;;
19776;SDS011;10047;42.490;26.012;2023-08-24T12:05:49;9.70;;;8.70;;
19776;SDS011;10047;42.490;26.012;2023-08-24T12:08:14;10.40;;;9.27;;
19776;SDS011;10047;42.490;26.012;2023-08-24T12:10:43;11.38;;;9.80;;
19776;SDS011;10047;42.490;26.012;2023-08-24T12:13:09;11.85;;;9.88;;
19776;SDS011;10047;42.490;26.012;2023-08-24T12:15:35;12.23;;;9.93;;
19776;SDS011;10047;42.490;26.012;2023-08-24T12:18:11;11.95;;;9.85;;
19776;SDS011;10047;42.490;26.012;2023-08-24T12:20:38;13.38;;;10.18;;
19776;SDS011;10047;42.490;26.012;2023-08-24T12:23:05;12.15;;;10.60;;
19776;SDS011;10047;42.490;26.012;2023-08-24T12:25:35;11.73;;;9.95;;
19776;SDS011;10047;42.490;26.012;2023-08-24T12:28:10;11.93;;;10.18;;
19776;SDS011;10047;42.490;26.012;2023-08-24T12:30:43;12.70;;;10.32;;
19776;SDS011;10047;42.490;26.012;2023-08-24T12:33:28;11.25;;;10.23;;
19776;SDS011;10047;42.490;26.012;2023-08-24T12:35:56;11.05;;;10.00;;
19776;SDS011;10047;42.490;26.012;2023-08-24T12:38:24;15.32;;;10.15;;
19776;SDS011;10047;42.490;26.012;2023-08-24T12:40:51;11.43;;;10.30;;
19776;SDS011;10047;42.490;26.012;2023-08-24T12:43:17;12.02;;;10.82;;
19776;SDS011;10047;42.490;26.012;2023-08-24T12:45:43;12.10;;;9.80;;
19776;SDS011;10047;42.490;26.012;2023-08-24T12:48:08;11.52;;;10.50;;
19776;SDS011;10047;42.490;26.012;2023-08-24T12:50:35;14.05;;;10.52;;
19776;SDS011;10047;42.490;26.012;2023-08-24T12:53:01;13.23;;;10.50;;
19776;SDS011;10047;42.490;26.012;2023-08-24T12:55:27;12.10;;;10.90;;
19776;SDS011;10047;42.490;26.012;2023-08-24T12:57:53;13.05;;;10.50;;
19776;SDS011;10047;42.490;26.012;2023-08-24T13:00:19;12.93;;;10.30;;
19776;SDS011;10047;42.490;26.012;2023-08-24T13:02:46;11.15;;;10.25;;
19776;SDS011;10047;42.490;26.012;2023-08-24T13:05:13;11.55;;;10.50;;
19776;SDS011;10047;42.490;26.012;2023-08-24T13:07:39;11.38;;;10.18;;
19776;SDS011;10047;42.490;26.012;2023-08-24T13:10:05;11.40;;;10.07;;
19776;SDS011;10047;42.490;26.012;2023-08-24T13:12:31;10.80;;;9.80;;
19776;SDS011;10047;42.490;26.012;2023-08-24T13:14:57;11.57;;;10.52;;
19776;SDS011;10047;42.490;26.012;2023-08-24T13:17:22;11.23;;;10.23;;
19776;SDS011;10047;42.490;26.012;2023-08-24T13:19:48;12.18;;;11.07;;
19776;SDS011;10047;42.490;26.012;2023-08-24T13:22:16;11.90;;;10.70;;
19776;SDS011;10047;42.490;26.012;2023-08-24T13:24:42;11.77;;;10.70;;
19776;SDS011;10047;42.490;26.012;2023-08-24T13:27:11;11.38;;;10.27;;
19776;SDS011;10047;42.490;26.012;2023-08-24T13:29:36;14.25;;;10.65;;
19776;SDS011;10047;42.490;26.012;2023-08-24T13:32:02;12.60;;;10.48;;
19776;SDS011;10047;42.490;26.012;2023-08-24T13:34:29;12.15;;;10.65;;
19776;SDS011;10047;42.490;26.012;2023-08-24T13:36:56;11.68;;;10.63;;
19776;SDS011;10047;42.490;26.012;2023-08-24T13:39:22;14.00;;;10.35;;
19776;SDS011;10047;42.490;26.012;2023-08-24T13:41:48;10.75;;;9.75;;
19776;SDS011;10047;42.490;26.012;2023-08-24T13:44:13;11.85;;;10.35;;
19776;SDS011;10047;42.490;26.012;2023-08-24T13:46:39;11.65;;;10.65;;
19776;SDS011;10047;42.490;26.012;2023-08-24T13:49:04;11.38;;;10.20;;
19776;SDS011;10047;42.490;26.012;2023-08-24T13:51:29;11.95;;;10.68;;
19776;SDS011;10047;42.490;26.012;2023-08-24T13:53:55;11.32;;;10.32;;
19776;SDS011;10047;42.490;26.012;2023-08-24T13:56:20;11.38;;;10.27;;
19776;SDS011;10047;42.490;26.012;2023-08-24T13:58:46;11.70;;;10.45;;
19776;SDS011;10047;42.490;26.012;2023-08-24T14:01:12;11.80;;;10.60;;
19776;SDS011;10047;42.490;26.012;2023-08-24T14:03:38;12.63;;;10.15;;
19776;SDS011;10047;42.490;26.012;2023-08-24T14:06:05;10.45;;;9.45;;
19776;SDS011;10047;42.490;26.012;2023-08-24T14:08:30;10.77;;;9.80;;
19776;SDS011;10047;42.490;26.012;2023-08-24T14:10:56;11.25;;;10.23;;
19776;SDS011;10047;42.490;26.012;2023-08-24T14:13:21;11.27;;;10.05;;
19776;SDS011;10047;42.490;26.012;2023-08-24T14:15:48;11.80;;;10.65;;
19776;SDS011;10047;42.490;26.012;2023-08-24T14:18:14;12.70;;;10.75;;
19776;SDS011;10047;42.490;26.012;2023-08-24T14:20:40;11.98;;;10.82;;